Greenville Downtown Airport
KGMU : rendu visible

Aérodrome :











RETROUVEZ-NOUS SUR...

 
LOGIN :

S'inscrire | Disclaimer

   EN    FR    IT 

 









Légende :    VFR   VFR Marginal   IFR   IFR Intensif   IFR Très Intensif
Visi : 
Plafond : 
>= 8 km
>= 3000ft
5 à 8 km
1000 à 3000 ft
1500m à 5 km
500 à 1000 ft
800 à 1500m
200 à 500 ft
< 800m
< 200 ft
Symboles :   Orages  Brouillard  Fortes neiges  Fortes précipitations  Vent > 20 kt






- Altitude de l'aérodrome : 1048 ft


KGMU - Greenville Downtown

DERNIER METAR :
  • 081753Z 22008KT 10SM BKN060 BKN090 29/15 A2979 RMK AO2 SLP077 T02890150 10289 20178 58018

METARs EXPIRÉS :
  • 081653Z VRB06KT 10SM BKN055 28/16 A2981 RMK AO2 SLP084 T02780156
  • 081553Z 00000KT 10SM CLR 26/16 A2983 RMK AO2 SLP093 T02610161

TAF KGMU
Valide du 08 à 18h jusqu'au 09 à 18h UTC


081736Z 0818/0918 27007KT P6SM SCT060 BKN250
FM082100 24009KT P6SM SCT060 BKN250
FM090000 24006KT P6SM SCT060 BKN250
FM090900 26011KT P6SM BKN060
PROB30 0909/0912 4SM TSRA BR OVC025CB
FM091400 28015G25KT P6SM FEW060



MET'MAP, la Météo Aéronautique d'un coup d'oeil ! - Copyright ORBIFLY Décembre 2007 - Disclaimer

ORBIFLY MET'MAP TEAM :

Programmation & Développement : Alexandra Zaïnal
Sur une idée originale de : Baudouin d'Aumeries
Assistance à la programmation : Marc-Olivier Méhu
Soutien technique & logistique : Manuel Goepfert

Contact : metmap@orbifly.com




SOURCES & CREDITS :

   NOAA       Earth
Advisory